sensor_id;sensor_type;location;lat;lon;timestamp;P1;durP1;ratioP1;P2;durP2;ratioP2
34098;SDS011;20374;49.474;10.944;2023-06-19T00:00:21;8.32;;;7.72;;
34098;SDS011;20374;49.474;10.944;2023-06-19T00:02:46;6.78;;;6.18;;
34098;SDS011;20374;49.474;10.944;2023-06-19T00:05:12;8.02;;;7.32;;
34098;SDS011;20374;49.474;10.944;2023-06-19T00:07:39;7.55;;;6.95;;
34098;SDS011;20374;49.474;10.944;2023-06-19T00:10:05;7.75;;;7.15;;
34098;SDS011;20374;49.474;10.944;2023-06-19T00:12:32;8.37;;;7.67;;
34098;SDS011;20374;49.474;10.944;2023-06-19T00:14:58;8.10;;;7.40;;
34098;SDS011;20374;49.474;10.944;2023-06-19T00:17:24;8.40;;;7.70;;
34098;SDS011;20374;49.474;10.944;2023-06-19T00:19:53;7.40;;;6.88;;
34098;SDS011;20374;49.474;10.944;2023-06-19T00:22:19;7.33;;;6.77;;
34098;SDS011;20374;49.474;10.944;2023-06-19T00:24:45;11.05;;;7.07;;
34098;SDS011;20374;49.474;10.944;2023-06-19T00:27:11;7.70;;;7.10;;
34098;SDS011;20374;49.474;10.944;2023-06-19T00:29:38;7.82;;;7.13;;
34098;SDS011;20374;49.474;10.944;2023-06-19T00:32:04;7.73;;;7.13;;
34098;SDS011;20374;49.474;10.944;2023-06-19T00:34:30;8.40;;;7.68;;
34098;SDS011;20374;49.474;10.944;2023-06-19T00:36:56;7.80;;;7.10;;
34098;SDS011;20374;49.474;10.944;2023-06-19T00:39:23;6.95;;;6.25;;
34098;SDS011;20374;49.474;10.944;2023-06-19T00:41:53;7.60;;;6.90;;
34098;SDS011;20374;49.474;10.944;2023-06-19T00:44:20;7.77;;;7.17;;
34098;SDS011;20374;49.474;10.944;2023-06-19T00:46:46;8.13;;;7.53;;
34098;SDS011;20374;49.474;10.944;2023-06-19T00:49:16;7.28;;;6.68;;
34098;SDS011;20374;49.474;10.944;2023-06-19T00:51:42;7.70;;;7.10;;
34098;SDS011;20374;49.474;10.944;2023-06-19T00:54:07;7.03;;;6.45;;
34098;SDS011;20374;49.474;10.944;2023-06-19T00:56:34;7.00;;;6.47;;
34098;SDS011;20374;49.474;10.944;2023-06-19T00:59:04;8.00;;;7.40;;
34098;SDS011;20374;49.474;10.944;2023-06-19T01:01:37;7.97;;;7.38;;
34098;SDS011;20374;49.474;10.944;2023-06-19T01:04:03;7.28;;;6.57;;
34098;SDS011;20374;49.474;10.944;2023-06-19T01:06:34;7.30;;;6.70;;
34098;SDS011;20374;49.474;10.944;2023-06-19T01:09:14;7.43;;;6.82;;
34098;SDS011;20374;49.474;10.944;2023-06-19T01:11:52;8.05;;;7.45;;
34098;SDS011;20374;49.474;10.944;2023-06-19T01:14:25;8.02;;;7.43;;
34098;SDS011;20374;49.474;10.944;2023-06-19T01:16:53;7.93;;;7.32;;
34098;SDS011;20374;49.474;10.944;2023-06-19T01:19:20;7.18;;;6.68;;
34098;SDS011;20374;49.474;10.944;2023-06-19T01:21:47;7.10;;;6.40;;
34098;SDS011;20374;49.474;10.944;2023-06-19T01:24:15;6.22;;;5.63;;
34098;SDS011;20374;49.474;10.944;2023-06-19T01:26:41;7.72;;;7.05;;
34098;SDS011;20374;49.474;10.944;2023-06-19T01:29:11;7.53;;;6.97;;
34098;SDS011;20374;49.474;10.944;2023-06-19T01:31:45;7.15;;;6.45;;
34098;SDS011;20374;49.474;10.944;2023-06-19T01:34:29;7.45;;;6.85;;
34098;SDS011;20374;49.474;10.944;2023-06-19T01:36:57;8.38;;;7.68;;
34098;SDS011;20374;49.474;10.944;2023-06-19T01:39:23;7.93;;;7.30;;
34098;SDS011;20374;49.474;10.944;2023-06-19T01:41:51;8.00;;;7.38;;
34098;SDS011;20374;49.474;10.944;2023-06-19T01:44:18;7.05;;;6.45;;
34098;SDS011;20374;49.474;10.944;2023-06-19T01:46:47;7.47;;;6.88;;
34098;SDS011;20374;49.474;10.944;2023-06-19T01:49:15;7.75;;;7.13;;
34098;SDS011;20374;49.474;10.944;2023-06-19T01:51:41;7.38;;;6.68;;
34098;SDS011;20374;49.474;10.944;2023-06-19T01:54:07;8.23;;;7.50;;
34098;SDS011;20374;49.474;10.944;2023-06-19T01:56:33;6.68;;;6.07;;
34098;SDS011;20374;49.474;10.944;2023-06-19T01:59:00;7.70;;;7.10;;
34098;SDS011;20374;49.474;10.944;2023-06-19T02:01:27;6.80;;;6.28;;
34098;SDS011;20374;49.474;10.944;2023-06-19T02:03:53;8.43;;;7.83;;
34098;SDS011;20374;49.474;10.944;2023-06-19T02:06:18;8.02;;;7.32;;
34098;SDS011;20374;49.474;10.944;2023-06-19T02:08:46;8.50;;;7.80;;
34098;SDS011;20374;49.474;10.944;2023-06-19T02:11:13;9.43;;;8.73;;
34098;SDS011;20374;49.474;10.944;2023-06-19T02:13:40;9.77;;;8.98;;
34098;SDS011;20374;49.474;10.944;2023-06-19T02:16:06;7.95;;;7.30;;
34098;SDS011;20374;49.474;10.944;2023-06-19T02:18:32;8.65;;;7.95;;
34098;SDS011;20374;49.474;10.944;2023-06-19T02:20:58;9.07;;;8.35;;
34098;SDS011;20374;49.474;10.944;2023-06-19T02:23:24;9.80;;;9.03;;
34098;SDS011;20374;49.474;10.944;2023-06-19T02:25:50;8.95;;;8.23;;
34098;SDS011;20374;49.474;10.944;2023-06-19T02:28:16;8.88;;;8.18;;
34098;SDS011;20374;49.474;10.944;2023-06-19T02:30:42;7.13;;;6.53;;
34098;SDS011;20374;49.474;10.944;2023-06-19T02:33:08;8.60;;;8.00;;
34098;SDS011;20374;49.474;10.944;2023-06-19T02:35:34;9.15;;;8.38;;
34098;SDS011;20374;49.474;10.944;2023-06-19T02:38:00;8.18;;;7.57;;
34098;SDS011;20374;49.474;10.944;2023-06-19T02:40:25;8.67;;;7.97;;
34098;SDS011;20374;49.474;10.944;2023-06-19T02:42:52;8.77;;;8.02;;
34098;SDS011;20374;49.474;10.944;2023-06-19T02:45:18;7.97;;;7.28;;
34098;SDS011;20374;49.474;10.944;2023-06-19T02:47:46;8.25;;;7.47;;
34098;SDS011;20374;49.474;10.944;2023-06-19T02:50:12;7.88;;;7.18;;
34098;SDS011;20374;49.474;10.944;2023-06-19T02:52:38;7.70;;;7.10;;
34098;SDS011;20374;49.474;10.944;2023-06-19T02:55:04;8.02;;;7.32;;
34098;SDS011;20374;49.474;10.944;2023-06-19T02:57:32;8.55;;;7.80;;
34098;SDS011;20374;49.474;10.944;2023-06-19T02:59:58;8.18;;;7.47;;
34098;SDS011;20374;49.474;10.944;2023-06-19T03:02:25;7.63;;;7.03;;
34098;SDS011;20374;49.474;10.944;2023-06-19T03:04:51;8.82;;;8.13;;
34098;SDS011;20374;49.474;10.944;2023-06-19T03:07:17;8.30;;;7.60;;
34098;SDS011;20374;49.474;10.944;2023-06-19T03:09:43;7.80;;;7.10;;
34098;SDS011;20374;49.474;10.944;2023-06-19T03:12:09;8.38;;;7.70;;
34098;SDS011;20374;49.474;10.944;2023-06-19T03:14:36;7.55;;;6.85;;
34098;SDS011;20374;49.474;10.944;2023-06-19T03:17:02;8.63;;;8.02;;
34098;SDS011;20374;49.474;10.944;2023-06-19T03:19:30;8.13;;;7.38;;
34098;SDS011;20374;49.474;10.944;2023-06-19T03:21:56;8.68;;;7.97;;
34098;SDS011;20374;49.474;10.944;2023-06-19T03:24:22;8.85;;;7.70;;
34098;SDS011;20374;49.474;10.944;2023-06-19T03:26:51;8.40;;;7.78;;
34098;SDS011;20374;49.474;10.944;2023-06-19T03:29:18;9.03;;;8.30;;
34098;SDS011;20374;49.474;10.944;2023-06-19T03:31:58;9.50;;;8.70;;
34098;SDS011;20374;49.474;10.944;2023-06-19T03:34:29;9.05;;;8.30;;
34098;SDS011;20374;49.474;10.944;2023-06-19T03:36:57;9.38;;;8.55;;
34098;SDS011;20374;49.474;10.944;2023-06-19T03:39:23;8.33;;;7.63;;
34098;SDS011;20374;49.474;10.944;2023-06-19T03:41:52;8.85;;;8.15;;
34098;SDS011;20374;49.474;10.944;2023-06-19T03:44:18;9.43;;;8.70;;
34098;SDS011;20374;49.474;10.944;2023-06-19T03:46:47;8.65;;;7.95;;
34098;SDS011;20374;49.474;10.944;2023-06-19T03:49:12;8.32;;;7.63;;
34098;SDS011;20374;49.474;10.944;2023-06-19T03:51:38;8.23;;;7.43;;
34098;SDS011;20374;49.474;10.944;2023-06-19T03:54:05;8.65;;;8.05;;
34098;SDS011;20374;49.474;10.944;2023-06-19T03:56:31;9.70;;;9.00;;
34098;SDS011;20374;49.474;10.944;2023-06-19T03:58:57;9.00;;;8.20;;
34098;SDS011;20374;49.474;10.944;2023-06-19T04:01:23;8.00;;;7.40;;
34098;SDS011;20374;49.474;10.944;2023-06-19T04:03:49;9.23;;;8.38;;
34098;SDS011;20374;49.474;10.944;2023-06-19T04:06:15;9.43;;;8.73;;
34098;SDS011;20374;49.474;10.944;2023-06-19T04:08:42;8.73;;;8.03;;
34098;SDS011;20374;49.474;10.944;2023-06-19T04:11:11;7.70;;;7.10;;
34098;SDS011;20374;49.474;10.944;2023-06-19T04:13:37;9.65;;;8.85;;
34098;SDS011;20374;49.474;10.944;2023-06-19T04:16:04;8.50;;;7.72;;
34098;SDS011;20374;49.474;10.944;2023-06-19T04:18:30;9.30;;;8.50;;
34098;SDS011;20374;49.474;10.944;2023-06-19T04:20:56;8.48;;;7.78;;
34098;SDS011;20374;49.474;10.944;2023-06-19T04:23:22;8.38;;;7.68;;
34098;SDS011;20374;49.474;10.944;2023-06-19T04:25:48;8.05;;;7.45;;
34098;SDS011;20374;49.474;10.944;2023-06-19T04:28:14;8.82;;;7.93;;
34098;SDS011;20374;49.474;10.944;2023-06-19T04:30:40;8.80;;;8.00;;
34098;SDS011;20374;49.474;10.944;2023-06-19T04:33:06;7.85;;;7.20;;
34098;SDS011;20374;49.474;10.944;2023-06-19T04:35:33;7.70;;;7.10;;
34098;SDS011;20374;49.474;10.944;2023-06-19T04:38:05;9.10;;;8.30;;
34098;SDS011;20374;49.474;10.944;2023-06-19T04:40:32;8.48;;;7.78;;
34098;SDS011;20374;49.474;10.944;2023-06-19T04:42:59;8.95;;;8.23;;
34098;SDS011;20374;49.474;10.944;2023-06-19T04:45:25;8.65;;;7.38;;
34098;SDS011;20374;49.474;10.944;2023-06-19T04:47:51;8.13;;;7.43;;
34098;SDS011;20374;49.474;10.944;2023-06-19T04:50:17;9.30;;;8.52;;
34098;SDS011;20374;49.474;10.944;2023-06-19T04:52:43;8.80;;;8.10;;
34098;SDS011;20374;49.474;10.944;2023-06-19T04:55:09;9.30;;;8.40;;
34098;SDS011;20374;49.474;10.944;2023-06-19T04:57:35;9.50;;;8.60;;
34098;SDS011;20374;49.474;10.944;2023-06-19T05:00:05;8.45;;;7.75;;
34098;SDS011;20374;49.474;10.944;2023-06-19T05:02:32;8.82;;;8.02;;
34098;SDS011;20374;49.474;10.944;2023-06-19T05:04:59;8.57;;;7.87;;
34098;SDS011;20374;49.474;10.944;2023-06-19T05:07:31;8.18;;;7.47;;
34098;SDS011;20374;49.474;10.944;2023-06-19T05:09:57;8.60;;;7.90;;
34098;SDS011;20374;49.474;10.944;2023-06-19T05:12:23;9.65;;;8.90;;
34098;SDS011;20374;49.474;10.944;2023-06-19T05:14:49;7.95;;;7.20;;
34098;SDS011;20374;49.474;10.944;2023-06-19T05:17:15;9.55;;;8.35;;
34098;SDS011;20374;49.474;10.944;2023-06-19T05:19:41;8.25;;;7.65;;
34098;SDS011;20374;49.474;10.944;2023-06-19T05:22:07;8.40;;;7.75;;
34098;SDS011;20374;49.474;10.944;2023-06-19T05:24:33;8.10;;;7.38;;
34098;SDS011;20374;49.474;10.944;2023-06-19T05:26:59;9.77;;;8.98;;
34098;SDS011;20374;49.474;10.944;2023-06-19T05:29:25;9.23;;;8.52;;
34098;SDS011;20374;49.474;10.944;2023-06-19T05:31:51;10.07;;;9.37;;
34098;SDS011;20374;49.474;10.944;2023-06-19T05:34:17;10.45;;;9.75;;
34098;SDS011;20374;49.474;10.944;2023-06-19T05:36:42;8.23;;;7.63;;
34098;SDS011;20374;49.474;10.944;2023-06-19T05:39:11;8.90;;;8.23;;
34098;SDS011;20374;49.474;10.944;2023-06-19T05:41:37;8.68;;;7.97;;
34098;SDS011;20374;49.474;10.944;2023-06-19T05:44:03;8.88;;;8.18;;
34098;SDS011;20374;49.474;10.944;2023-06-19T05:46:29;9.48;;;8.73;;
34098;SDS011;20374;49.474;10.944;2023-06-19T05:48:55;8.37;;;7.67;;
34098;SDS011;20374;49.474;10.944;2023-06-19T05:51:21;8.45;;;7.85;;
34098;SDS011;20374;49.474;10.944;2023-06-19T05:53:47;8.68;;;7.97;;
34098;SDS011;20374;49.474;10.944;2023-06-19T05:56:15;8.70;;;7.90;;
34098;SDS011;20374;49.474;10.944;2023-06-19T05:58:41;9.27;;;8.57;;
34098;SDS011;20374;49.474;10.944;2023-06-19T06:01:07;7.80;;;6.97;;
34098;SDS011;20374;49.474;10.944;2023-06-19T06:03:33;8.52;;;7.82;;
34098;SDS011;20374;49.474;10.944;2023-06-19T06:05:59;8.57;;;7.97;;
34098;SDS011;20374;49.474;10.944;2023-06-19T06:08:31;8.25;;;7.55;;
34098;SDS011;20374;49.474;10.944;2023-06-19T06:10:57;7.53;;;6.90;;
34098;SDS011;20374;49.474;10.944;2023-06-19T06:13:23;7.70;;;7.10;;
34098;SDS011;20374;49.474;10.944;2023-06-19T06:15:50;7.00;;;6.40;;
34098;SDS011;20374;49.474;10.944;2023-06-19T06:18:16;7.18;;;6.57;;
34098;SDS011;20374;49.474;10.944;2023-06-19T06:20:42;8.55;;;6.82;;
34098;SDS011;20374;49.474;10.944;2023-06-19T06:23:07;6.90;;;6.43;;
34098;SDS011;20374;49.474;10.944;2023-06-19T06:25:33;6.40;;;5.90;;
34098;SDS011;20374;49.474;10.944;2023-06-19T06:27:59;6.88;;;6.35;;
34098;SDS011;20374;49.474;10.944;2023-06-19T06:30:25;7.15;;;6.57;;
34098;SDS011;20374;49.474;10.944;2023-06-19T06:32:53;6.53;;;5.80;;
34098;SDS011;20374;49.474;10.944;2023-06-19T06:35:19;7.03;;;6.53;;
34098;SDS011;20374;49.474;10.944;2023-06-19T06:37:45;7.05;;;6.50;;
34098;SDS011;20374;49.474;10.944;2023-06-19T06:40:11;6.75;;;6.32;;
34098;SDS011;20374;49.474;10.944;2023-06-19T06:42:38;6.63;;;5.65;;
34098;SDS011;20374;49.474;10.944;2023-06-19T06:45:04;7.15;;;6.55;;
34098;SDS011;20374;49.474;10.944;2023-06-19T06:47:32;7.97;;;7.18;;
34098;SDS011;20374;49.474;10.944;2023-06-19T06:49:58;7.85;;;7.25;;
34098;SDS011;20374;49.474;10.944;2023-06-19T06:52:23;8.57;;;8.07;;
34098;SDS011;20374;49.474;10.944;2023-06-19T06:54:50;8.30;;;7.68;;
34098;SDS011;20374;49.474;10.944;2023-06-19T06:57:16;8.95;;;8.15;;
34098;SDS011;20374;49.474;10.944;2023-06-19T06:59:42;8.77;;;8.18;;
34098;SDS011;20374;49.474;10.944;2023-06-19T07:02:08;7.53;;;6.82;;
34098;SDS011;20374;49.474;10.944;2023-06-19T07:04:33;7.78;;;7.15;;
34098;SDS011;20374;49.474;10.944;2023-06-19T07:06:59;6.30;;;5.90;;
34098;SDS011;20374;49.474;10.944;2023-06-19T07:09:25;7.60;;;7.10;;
34098;SDS011;20374;49.474;10.944;2023-06-19T07:11:52;7.10;;;6.40;;
34098;SDS011;20374;49.474;10.944;2023-06-19T07:14:17;6.20;;;5.70;;
34098;SDS011;20374;49.474;10.944;2023-06-19T07:16:46;6.43;;;6.03;;
34098;SDS011;20374;49.474;10.944;2023-06-19T07:19:12;6.63;;;6.13;;
34098;SDS011;20374;49.474;10.944;2023-06-19T07:21:38;5.53;;;5.13;;
34098;SDS011;20374;49.474;10.944;2023-06-19T07:24:05;6.22;;;5.72;;
34098;SDS011;20374;49.474;10.944;2023-06-19T07:26:31;5.30;;;4.90;;
34098;SDS011;20374;49.474;10.944;2023-06-19T07:28:57;6.38;;;5.90;;
34098;SDS011;20374;49.474;10.944;2023-06-19T07:31:23;6.07;;;5.67;;
34098;SDS011;20374;49.474;10.944;2023-06-19T07:33:48;6.35;;;5.95;;
34098;SDS011;20374;49.474;10.944;2023-06-19T07:36:14;6.40;;;6.00;;
34098;SDS011;20374;49.474;10.944;2023-06-19T07:38:44;6.05;;;5.65;;
34098;SDS011;20374;49.474;10.944;2023-06-19T07:41:11;5.82;;;5.43;;
34098;SDS011;20374;49.474;10.944;2023-06-19T07:43:37;5.78;;;5.38;;
34098;SDS011;20374;49.474;10.944;2023-06-19T07:46:03;5.82;;;5.43;;
34098;SDS011;20374;49.474;10.944;2023-06-19T07:48:29;5.45;;;5.05;;
34098;SDS011;20374;49.474;10.944;2023-06-19T07:50:55;4.75;;;4.35;;
34098;SDS011;20374;49.474;10.944;2023-06-19T07:53:21;5.97;;;5.55;;
34098;SDS011;20374;49.474;10.944;2023-06-19T07:55:47;5.15;;;4.82;;
34098;SDS011;20374;49.474;10.944;2023-06-19T07:58:13;5.35;;;4.95;;
34098;SDS011;20374;49.474;10.944;2023-06-19T08:00:39;5.90;;;5.50;;
34098;SDS011;20374;49.474;10.944;2023-06-19T08:03:05;6.07;;;5.68;;
34098;SDS011;20374;49.474;10.944;2023-06-19T08:05:31;5.93;;;5.55;;
34098;SDS011;20374;49.474;10.944;2023-06-19T08:08:00;6.20;;;5.80;;
34098;SDS011;20374;49.474;10.944;2023-06-19T08:10:26;5.65;;;5.25;;
34098;SDS011;20374;49.474;10.944;2023-06-19T08:12:53;6.07;;;5.68;;
34098;SDS011;20374;49.474;10.944;2023-06-19T08:15:19;6.07;;;5.68;;
34098;SDS011;20374;49.474;10.944;2023-06-19T08:17:45;6.05;;;5.65;;
34098;SDS011;20374;49.474;10.944;2023-06-19T08:20:11;6.30;;;5.90;;
34098;SDS011;20374;49.474;10.944;2023-06-19T08:22:37;5.53;;;5.13;;
34098;SDS011;20374;49.474;10.944;2023-06-19T08:25:03;6.10;;;5.70;;
34098;SDS011;20374;49.474;10.944;2023-06-19T08:27:30;6.20;;;5.72;;
34098;SDS011;20374;49.474;10.944;2023-06-19T08:29:56;5.63;;;5.30;;
34098;SDS011;20374;49.474;10.944;2023-06-19T08:32:22;6.80;;;6.40;;
34098;SDS011;20374;49.474;10.944;2023-06-19T08:34:47;5.30;;;4.95;;
34098;SDS011;20374;49.474;10.944;2023-06-19T08:37:13;5.10;;;4.70;;
34098;SDS011;20374;49.474;10.944;2023-06-19T08:39:39;5.95;;;5.55;;
34098;SDS011;20374;49.474;10.944;2023-06-19T08:42:05;6.82;;;6.43;;
34098;SDS011;20374;49.474;10.944;2023-06-19T08:44:33;6.78;;;6.38;;
34098;SDS011;20374;49.474;10.944;2023-06-19T08:47:02;7.18;;;6.78;;
34098;SDS011;20374;49.474;10.944;2023-06-19T08:49:33;7.20;;;6.78;;
34098;SDS011;20374;49.474;10.944;2023-06-19T08:52:01;6.45;;;5.88;;
34098;SDS011;20374;49.474;10.944;2023-06-19T08:54:27;6.88;;;6.40;;
34098;SDS011;20374;49.474;10.944;2023-06-19T08:56:53;7.00;;;6.50;;
34098;SDS011;20374;49.474;10.944;2023-06-19T08:59:19;6.63;;;6.22;;
34098;SDS011;20374;49.474;10.944;2023-06-19T09:01:46;6.45;;;6.05;;
34098;SDS011;20374;49.474;10.944;2023-06-19T09:04:30;6.28;;;5.82;;
34098;SDS011;20374;49.474;10.944;2023-06-19T09:06:57;6.70;;;6.22;;
34098;SDS011;20374;49.474;10.944;2023-06-19T09:09:24;6.80;;;6.37;;
34098;SDS011;20374;49.474;10.944;2023-06-19T09:12:01;6.63;;;6.22;;
34098;SDS011;20374;49.474;10.944;2023-06-19T09:14:41;7.10;;;6.60;;
34098;SDS011;20374;49.474;10.944;2023-06-19T09:17:18;6.88;;;6.38;;
34098;SDS011;20374;49.474;10.944;2023-06-19T09:19:51;6.40;;;6.00;;
34098;SDS011;20374;49.474;10.944;2023-06-19T09:22:20;6.63;;;6.23;;
34098;SDS011;20374;49.474;10.944;2023-06-19T09:24:46;6.80;;;6.32;;
34098;SDS011;20374;49.474;10.944;2023-06-19T09:27:16;7.18;;;6.78;;
34098;SDS011;20374;49.474;10.944;2023-06-19T09:29:48;6.97;;;6.47;;
34098;SDS011;20374;49.474;10.944;2023-06-19T09:32:19;6.63;;;6.22;;
34098;SDS011;20374;49.474;10.944;2023-06-19T09:34:51;6.17;;;5.77;;
34098;SDS011;20374;49.474;10.944;2023-06-19T09:37:37;6.45;;;6.05;;
34098;SDS011;20374;49.474;10.944;2023-06-19T09:40:06;6.05;;;5.65;;
34098;SDS011;20374;49.474;10.944;2023-06-19T09:42:42;7.05;;;6.65;;
34098;SDS011;20374;49.474;10.944;2023-06-19T09:45:29;7.00;;;6.60;;
34098;SDS011;20374;49.474;10.944;2023-06-19T09:47:57;6.97;;;6.57;;
34098;SDS011;20374;49.474;10.944;2023-06-19T09:50:35;7.72;;;7.25;;
34098;SDS011;20374;49.474;10.944;2023-06-19T09:53:03;7.60;;;7.20;;
34098;SDS011;20374;49.474;10.944;2023-06-19T09:55:29;7.55;;;7.03;;
34098;SDS011;20374;49.474;10.944;2023-06-19T09:57:57;6.95;;;6.55;;
34098;SDS011;20374;49.474;10.944;2023-06-19T10:00:23;6.60;;;6.20;;
34098;SDS011;20374;49.474;10.944;2023-06-19T10:02:56;7.60;;;7.18;;
34098;SDS011;20374;49.474;10.944;2023-06-19T10:05:30;8.45;;;8.05;;
34098;SDS011;20374;49.474;10.944;2023-06-19T10:07:56;7.70;;;7.30;;
34098;SDS011;20374;49.474;10.944;2023-06-19T10:10:27;7.18;;;6.78;;
34098;SDS011;20374;49.474;10.944;2023-06-19T10:12:55;6.83;;;6.43;;
34098;SDS011;20374;49.474;10.944;2023-06-19T10:15:26;7.63;;;7.22;;
34098;SDS011;20374;49.474;10.944;2023-06-19T10:18:00;8.23;;;7.78;;
34098;SDS011;20374;49.474;10.944;2023-06-19T10:23:07;6.53;;;6.15;;
34098;SDS011;20374;49.474;10.944;2023-06-19T10:25:39;6.77;;;6.37;;
34098;SDS011;20374;49.474;10.944;2023-06-19T10:30:57;7.18;;;6.75;;
34098;SDS011;20374;49.474;10.944;2023-06-19T10:33:29;7.45;;;7.05;;
34098;SDS011;20374;49.474;10.944;2023-06-19T10:35:58;7.95;;;7.55;;
34098;SDS011;20374;49.474;10.944;2023-06-19T10:38:39;7.70;;;7.30;;
34098;SDS011;20374;49.474;10.944;2023-06-19T10:41:05;8.30;;;7.80;;
34098;SDS011;20374;49.474;10.944;2023-06-19T10:43:39;7.97;;;7.47;;
34098;SDS011;20374;49.474;10.944;2023-06-19T10:46:05;7.90;;;7.50;;
34098;SDS011;20374;49.474;10.944;2023-06-19T10:48:31;7.72;;;7.32;;
34098;SDS011;20374;49.474;10.944;2023-06-19T10:50:57;9.45;;;8.95;;
34098;SDS011;20374;49.474;10.944;2023-06-19T10:53:32;8.82;;;8.32;;
34098;SDS011;20374;49.474;10.944;2023-06-19T10:56:00;7.03;;;6.63;;
34098;SDS011;20374;49.474;10.944;2023-06-19T10:58:27;8.18;;;7.78;;
34098;SDS011;20374;49.474;10.944;2023-06-19T11:00:53;8.98;;;8.48;;
34098;SDS011;20374;49.474;10.944;2023-06-19T11:03:20;9.23;;;8.73;;
34098;SDS011;20374;49.474;10.944;2023-06-19T11:05:46;7.83;;;7.23;;
34098;SDS011;20374;49.474;10.944;2023-06-19T11:08:20;7.43;;;7.03;;
34098;SDS011;20374;49.474;10.944;2023-06-19T11:10:47;8.88;;;8.27;;
34098;SDS011;20374;49.474;10.944;2023-06-19T11:13:14;8.38;;;7.88;;
34098;SDS011;20374;49.474;10.944;2023-06-19T11:15:42;7.10;;;6.70;;
34098;SDS011;20374;49.474;10.944;2023-06-19T11:18:08;7.00;;;6.50;;
34098;SDS011;20374;49.474;10.944;2023-06-19T11:20:43;8.05;;;7.63;;
34098;SDS011;20374;49.474;10.944;2023-06-19T11:23:10;7.53;;;7.13;;
34098;SDS011;20374;49.474;10.944;2023-06-19T11:25:36;6.87;;;6.47;;
34098;SDS011;20374;49.474;10.944;2023-06-19T11:28:04;6.97;;;6.57;;
34098;SDS011;20374;49.474;10.944;2023-06-19T11:30:31;7.20;;;6.80;;
34098;SDS011;20374;49.474;10.944;2023-06-19T11:32:58;6.65;;;6.25;;
34098;SDS011;20374;49.474;10.944;2023-06-19T11:35:24;7.75;;;7.35;;
34098;SDS011;20374;49.474;10.944;2023-06-19T11:37:50;8.00;;;7.40;;
34098;SDS011;20374;49.474;10.944;2023-06-19T11:40:17;7.65;;;7.25;;
34098;SDS011;20374;49.474;10.944;2023-06-19T11:45:17;7.30;;;6.90;;
34098;SDS011;20374;49.474;10.944;2023-06-19T11:47:46;6.97;;;6.57;;
34098;SDS011;20374;49.474;10.944;2023-06-19T11:50:15;7.27;;;6.87;;
34098;SDS011;20374;49.474;10.944;2023-06-19T11:52:42;7.45;;;6.95;;
34098;SDS011;20374;49.474;10.944;2023-06-19T11:55:13;6.85;;;6.45;;
34098;SDS011;20374;49.474;10.944;2023-06-19T11:57:40;6.50;;;6.10;;
34098;SDS011;20374;49.474;10.944;2023-06-19T12:00:15;8.77;;;8.37;;
34098;SDS011;20374;49.474;10.944;2023-06-19T12:02:43;8.40;;;8.00;;
34098;SDS011;20374;49.474;10.944;2023-06-19T12:05:09;8.35;;;7.95;;
34098;SDS011;20374;49.474;10.944;2023-06-19T12:07:36;8.93;;;8.43;;
34098;SDS011;20374;49.474;10.944;2023-06-19T12:10:02;8.80;;;8.30;;
34098;SDS011;20374;49.474;10.944;2023-06-19T12:12:30;7.63;;;7.23;;
34098;SDS011;20374;49.474;10.944;2023-06-19T12:14:56;6.47;;;6.07;;
34098;SDS011;20374;49.474;10.944;2023-06-19T12:17:22;7.85;;;7.35;;
34098;SDS011;20374;49.474;10.944;2023-06-19T12:19:48;8.30;;;7.90;;
34098;SDS011;20374;49.474;10.944;2023-06-19T12:22:14;7.50;;;7.10;;
34098;SDS011;20374;49.474;10.944;2023-06-19T12:24:40;9.07;;;8.60;;
34098;SDS011;20374;49.474;10.944;2023-06-19T12:27:06;7.38;;;6.97;;
34098;SDS011;20374;49.474;10.944;2023-06-19T12:29:32;6.90;;;6.50;;
34098;SDS011;20374;49.474;10.944;2023-06-19T12:31:59;8.55;;;7.95;;
34098;SDS011;20374;49.474;10.944;2023-06-19T12:34:27;6.78;;;6.38;;
34098;SDS011;20374;49.474;10.944;2023-06-19T12:36:53;6.82;;;6.43;;
34098;SDS011;20374;49.474;10.944;2023-06-19T12:39:20;6.77;;;6.37;;
34098;SDS011;20374;49.474;10.944;2023-06-19T12:41:46;7.10;;;6.70;;
34098;SDS011;20374;49.474;10.944;2023-06-19T12:44:12;9.50;;;9.00;;
34098;SDS011;20374;49.474;10.944;2023-06-19T12:46:38;8.85;;;8.35;;
34098;SDS011;20374;49.474;10.944;2023-06-19T12:49:04;6.13;;;5.67;;
34098;SDS011;20374;49.474;10.944;2023-06-19T12:51:31;6.55;;;6.20;;
34098;SDS011;20374;49.474;10.944;2023-06-19T12:53:56;9.00;;;8.50;;
34098;SDS011;20374;49.474;10.944;2023-06-19T12:56:22;7.55;;;7.15;;
34098;SDS011;20374;49.474;10.944;2023-06-19T12:58:48;7.33;;;6.83;;
34098;SDS011;20374;49.474;10.944;2023-06-19T13:01:14;7.30;;;6.80;;
34098;SDS011;20374;49.474;10.944;2023-06-19T13:03:40;8.05;;;7.55;;
34098;SDS011;20374;49.474;10.944;2023-06-19T13:06:06;8.80;;;8.30;;
34098;SDS011;20374;49.474;10.944;2023-06-19T13:08:32;9.13;;;8.55;;
34098;SDS011;20374;49.474;10.944;2023-06-19T13:10:58;9.25;;;8.75;;
34098;SDS011;20374;49.474;10.944;2023-06-19T13:13:23;7.87;;;7.47;;
34098;SDS011;20374;49.474;10.944;2023-06-19T13:15:49;8.00;;;7.18;;
34098;SDS011;20374;49.474;10.944;2023-06-19T13:18:15;7.87;;;7.47;;
34098;SDS011;20374;49.474;10.944;2023-06-19T13:20:42;8.02;;;7.53;;
34098;SDS011;20374;49.474;10.944;2023-06-19T13:23:10;8.98;;;8.48;;
34098;SDS011;20374;49.474;10.944;2023-06-19T13:25:36;8.52;;;8.02;;
34098;SDS011;20374;49.474;10.944;2023-06-19T13:28:01;9.73;;;9.23;;
34098;SDS011;20374;49.474;10.944;2023-06-19T13:30:27;8.32;;;7.82;;
34098;SDS011;20374;49.474;10.944;2023-06-19T13:32:54;8.40;;;7.90;;
34098;SDS011;20374;49.474;10.944;2023-06-19T13:35:20;7.43;;;7.03;;
34098;SDS011;20374;49.474;10.944;2023-06-19T13:37:47;6.30;;;5.90;;
34098;SDS011;20374;49.474;10.944;2023-06-19T13:40:13;8.05;;;7.55;;
34098;SDS011;20374;49.474;10.944;2023-06-19T13:42:38;7.57;;;7.10;;
34098;SDS011;20374;49.474;10.944;2023-06-19T13:45:05;8.40;;;7.80;;
34098;SDS011;20374;49.474;10.944;2023-06-19T13:47:31;6.47;;;6.07;;
34098;SDS011;20374;49.474;10.944;2023-06-19T13:49:57;7.32;;;6.82;;
34098;SDS011;20374;49.474;10.944;2023-06-19T13:52:23;7.72;;;7.25;;
34098;SDS011;20374;49.474;10.944;2023-06-19T13:54:49;7.25;;;6.85;;
34098;SDS011;20374;49.474;10.944;2023-06-19T13:57:16;7.18;;;6.78;;
34098;SDS011;20374;49.474;10.944;2023-06-19T13:59:41;6.90;;;6.43;;
34098;SDS011;20374;49.474;10.944;2023-06-19T14:02:08;7.07;;;6.67;;
34098;SDS011;20374;49.474;10.944;2023-06-19T14:04:35;6.75;;;6.35;;
34098;SDS011;20374;49.474;10.944;2023-06-19T14:07:01;7.55;;;7.10;;
34098;SDS011;20374;49.474;10.944;2023-06-19T14:09:27;7.10;;;6.60;;
34098;SDS011;20374;49.474;10.944;2023-06-19T14:11:53;6.78;;;6.28;;
34098;SDS011;20374;49.474;10.944;2023-06-19T14:14:19;6.88;;;6.38;;
34098;SDS011;20374;49.474;10.944;2023-06-19T14:16:45;7.13;;;6.63;;
34098;SDS011;20374;49.474;10.944;2023-06-19T14:19:11;8.03;;;7.53;;
34098;SDS011;20374;49.474;10.944;2023-06-19T14:21:36;8.07;;;7.53;;
34098;SDS011;20374;49.474;10.944;2023-06-19T14:24:02;7.47;;;6.88;;
34098;SDS011;20374;49.474;10.944;2023-06-19T14:26:29;7.07;;;6.67;;
34098;SDS011;20374;49.474;10.944;2023-06-19T14:28:54;6.90;;;6.50;;
34098;SDS011;20374;49.474;10.944;2023-06-19T14:31:23;8.52;;;8.02;;
34098;SDS011;20374;49.474;10.944;2023-06-19T14:33:49;6.85;;;6.45;;
34098;SDS011;20374;49.474;10.944;2023-06-19T14:36:15;7.83;;;7.33;;
34098;SDS011;20374;49.474;10.944;2023-06-19T14:38:41;7.32;;;6.82;;
34098;SDS011;20374;49.474;10.944;2023-06-19T14:41:07;8.27;;;7.63;;